sensor_id;sensor_type;location;lat;lon;timestamp;temperature;humidity
55091;DHT22;40985;53.180;5.800;2023-10-19T00:00:14;7.70;99.90
55091;DHT22;40985;53.180;5.800;2023-10-19T00:02:49;7.60;99.90
55091;DHT22;40985;53.180;5.800;2023-10-19T00:05:18;7.60;99.90
55091;DHT22;40985;53.180;5.800;2023-10-19T00:07:45;7.60;99.90
55091;DHT22;40985;53.180;5.800;2023-10-19T00:10:12;7.70;99.90
55091;DHT22;40985;53.180;5.800;2023-10-19T00:12:42;7.60;99.90
55091;DHT22;40985;53.180;5.800;2023-10-19T00:15:10;7.60;99.90
55091;DHT22;40985;53.180;5.800;2023-10-19T00:17:37;7.60;99.90
55091;DHT22;40985;53.180;5.800;2023-10-19T00:20:06;7.60;99.90
55091;DHT22;40985;53.180;5.800;2023-10-19T00:22:51;7.60;99.90
55091;DHT22;40985;53.180;5.800;2023-10-19T00:25:18;7.70;99.90
55091;DHT22;40985;53.180;5.800;2023-10-19T00:27:43;7.60;99.90
55091;DHT22;40985;53.180;5.800;2023-10-19T00:30:11;7.50;99.90
55091;DHT22;40985;53.180;5.800;2023-10-19T00:32:37;7.50;99.90
55091;DHT22;40985;53.180;5.800;2023-10-19T00:35:05;7.50;99.90
55091;DHT22;40985;53.180;5.800;2023-10-19T00:37:46;7.60;99.90
55091;DHT22;40985;53.180;5.800;2023-10-19T00:40:13;7.60;99.90
55091;DHT22;40985;53.180;5.800;2023-10-19T00:42:57;7.50;99.90
55091;DHT22;40985;53.180;5.800;2023-10-19T00:45:23;7.60;99.90
55091;DHT22;40985;53.180;5.800;2023-10-19T00:47:52;7.70;99.90
55091;DHT22;40985;53.180;5.800;2023-10-19T00:50:18;7.70;99.90
55091;DHT22;40985;53.180;5.800;2023-10-19T00:52:48;7.60;99.90
55091;DHT22;40985;53.180;5.800;2023-10-19T00:55:17;7.60;99.90
55091;DHT22;40985;53.180;5.800;2023-10-19T00:57:45;7.50;99.90
55091;DHT22;40985;53.180;5.800;2023-10-19T01:00:14;7.70;99.90
55091;DHT22;40985;53.180;5.800;2023-10-19T01:02:57;7.60;99.90
55091;DHT22;40985;53.180;5.800;2023-10-19T01:05:26;7.60;99.90
55091;DHT22;40985;53.180;5.800;2023-10-19T01:07:58;7.60;99.90
55091;DHT22;40985;53.180;5.800;2023-10-19T01:10:27;7.70;99.90
55091;DHT22;40985;53.180;5.800;2023-10-19T01:12:53;7.60;99.90
55091;DHT22;40985;53.180;5.800;2023-10-19T01:15:21;7.60;99.90
55091;DHT22;40985;53.180;5.800;2023-10-19T01:17:56;7.60;99.90
55091;DHT22;40985;53.180;5.800;2023-10-19T01:23:07;7.70;99.90
55091;DHT22;40985;53.180;5.800;2023-10-19T01:25:47;7.50;99.90
55091;DHT22;40985;53.180;5.800;2023-10-19T01:30:54;7.60;99.90
55091;DHT22;40985;53.180;5.800;2023-10-19T01:33:21;7.70;99.90
55091;DHT22;40985;53.180;5.800;2023-10-19T01:35:48;7.60;99.90
55091;DHT22;40985;53.180;5.800;2023-10-19T01:38:32;7.70;99.90
55091;DHT22;40985;53.180;5.800;2023-10-19T01:41:03;7.60;99.90
55091;DHT22;40985;53.180;5.800;2023-10-19T01:43:43;7.60;99.90
55091;DHT22;40985;53.180;5.800;2023-10-19T01:46:10;7.60;99.90
55091;DHT22;40985;53.180;5.800;2023-10-19T01:48:39;7.60;99.90
55091;DHT22;40985;53.180;5.800;2023-10-19T01:51:10;7.60;99.90
55091;DHT22;40985;53.180;5.800;2023-10-19T01:53:37;7.60;99.90
55091;DHT22;40985;53.180;5.800;2023-10-19T01:56:06;7.80;99.90
55091;DHT22;40985;53.180;5.800;2023-10-19T01:58:36;7.70;99.90
55091;DHT22;40985;53.180;5.800;2023-10-19T02:01:03;7.60;99.90
55091;DHT22;40985;53.180;5.800;2023-10-19T02:03:34;7.70;99.90
55091;DHT22;40985;53.180;5.800;2023-10-19T02:06:01;7.80;99.90
55091;DHT22;40985;53.180;5.800;2023-10-19T02:08:36;7.80;99.90
55091;DHT22;40985;53.180;5.800;2023-10-19T02:11:05;7.70;99.90
55091;DHT22;40985;53.180;5.800;2023-10-19T02:13:42;7.60;99.90
55091;DHT22;40985;53.180;5.800;2023-10-19T02:16:10;7.80;99.90
55091;DHT22;40985;53.180;5.800;2023-10-19T02:18:36;7.70;99.90
55091;DHT22;40985;53.180;5.800;2023-10-19T02:21:03;7.70;99.90
55091;DHT22;40985;53.180;5.800;2023-10-19T02:23:32;7.70;99.90
55091;DHT22;40985;53.180;5.800;2023-10-19T02:26:01;7.80;99.90
55091;DHT22;40985;53.180;5.800;2023-10-19T02:28:29;7.80;99.90
55091;DHT22;40985;53.180;5.800;2023-10-19T02:30:58;7.80;99.90
55091;DHT22;40985;53.180;5.800;2023-10-19T02:33:36;7.80;99.90
55091;DHT22;40985;53.180;5.800;2023-10-19T02:36:02;7.70;99.90
55091;DHT22;40985;53.180;5.800;2023-10-19T02:38:29;7.70;99.90
55091;DHT22;40985;53.180;5.800;2023-10-19T02:40:55;7.80;99.90
55091;DHT22;40985;53.180;5.800;2023-10-19T02:43:21;7.70;99.90
55091;DHT22;40985;53.180;5.800;2023-10-19T02:45:49;7.80;99.90
55091;DHT22;40985;53.180;5.800;2023-10-19T02:48:16;7.90;99.90
55091;DHT22;40985;53.180;5.800;2023-10-19T02:50:42;7.70;99.90
55091;DHT22;40985;53.180;5.800;2023-10-19T02:53:08;7.90;99.90
55091;DHT22;40985;53.180;5.800;2023-10-19T02:55:38;7.70;99.90
55091;DHT22;40985;53.180;5.800;2023-10-19T02:58:06;7.70;99.90
55091;DHT22;40985;53.180;5.800;2023-10-19T03:00:31;7.90;99.90
55091;DHT22;40985;53.180;5.800;2023-10-19T03:03:00;7.90;99.90
55091;DHT22;40985;53.180;5.800;2023-10-19T03:05:26;7.90;99.90
55091;DHT22;40985;53.180;5.800;2023-10-19T03:07:52;7.90;99.90
55091;DHT22;40985;53.180;5.800;2023-10-19T03:10:18;7.70;99.90
55091;DHT22;40985;53.180;5.800;2023-10-19T03:13:00;7.80;99.90
55091;DHT22;40985;53.180;5.800;2023-10-19T03:15:26;7.90;99.90
55091;DHT22;40985;53.180;5.800;2023-10-19T03:17:55;7.70;99.90
55091;DHT22;40985;53.180;5.800;2023-10-19T03:20:21;7.80;99.90
55091;DHT22;40985;53.180;5.800;2023-10-19T03:22:50;7.80;99.90
55091;DHT22;40985;53.180;5.800;2023-10-19T03:25:16;7.80;99.90
55091;DHT22;40985;53.180;5.800;2023-10-19T03:28:00;7.90;99.90
55091;DHT22;40985;53.180;5.800;2023-10-19T03:30:37;8.00;99.90
55091;DHT22;40985;53.180;5.800;2023-10-19T03:33:08;7.80;99.90
55091;DHT22;40985;53.180;5.800;2023-10-19T03:35:37;7.80;99.90
55091;DHT22;40985;53.180;5.800;2023-10-19T03:38:04;7.90;99.90
55091;DHT22;40985;53.180;5.800;2023-10-19T03:40:44;7.90;99.90
55091;DHT22;40985;53.180;5.800;2023-10-19T03:43:20;7.90;99.90
55091;DHT22;40985;53.180;5.800;2023-10-19T03:45:52;8.00;99.90
55091;DHT22;40985;53.180;5.800;2023-10-19T03:48:21;8.00;99.90
55091;DHT22;40985;53.180;5.800;2023-10-19T03:50:53;7.90;99.90
55091;DHT22;40985;53.180;5.800;2023-10-19T03:53:21;8.10;99.90
55091;DHT22;40985;53.180;5.800;2023-10-19T03:55:47;7.90;99.90
55091;DHT22;40985;53.180;5.800;2023-10-19T03:58:16;8.10;99.90
55091;DHT22;40985;53.180;5.800;2023-10-19T04:00:41;8.10;99.90
55091;DHT22;40985;53.180;5.800;2023-10-19T04:03:07;8.10;99.90
55091;DHT22;40985;53.180;5.800;2023-10-19T04:05:33;8.10;99.90
55091;DHT22;40985;53.180;5.800;2023-10-19T04:08:05;8.10;99.90
55091;DHT22;40985;53.180;5.800;2023-10-19T04:10:39;8.10;99.90
55091;DHT22;40985;53.180;5.800;2023-10-19T04:13:05;7.90;99.90
55091;DHT22;40985;53.180;5.800;2023-10-19T04:15:35;7.90;99.90
55091;DHT22;40985;53.180;5.800;2023-10-19T04:18:03;8.00;99.90
55091;DHT22;40985;53.180;5.800;2023-10-19T04:20:34;8.00;99.90
55091;DHT22;40985;53.180;5.800;2023-10-19T04:23:18;8.20;99.90
55091;DHT22;40985;53.180;5.800;2023-10-19T04:25:46;8.20;99.90
55091;DHT22;40985;53.180;5.800;2023-10-19T04:28:13;8.20;99.90
55091;DHT22;40985;53.180;5.800;2023-10-19T04:30:56;8.10;99.90
55091;DHT22;40985;53.180;5.800;2023-10-19T04:33:22;8.10;99.90
55091;DHT22;40985;53.180;5.800;2023-10-19T04:35:50;8.20;99.90
55091;DHT22;40985;53.180;5.800;2023-10-19T04:38:24;8.10;99.90
55091;DHT22;40985;53.180;5.800;2023-10-19T04:40:49;8.20;99.90
55091;DHT22;40985;53.180;5.800;2023-10-19T04:43:15;8.30;99.90
55091;DHT22;40985;53.180;5.800;2023-10-19T04:45:42;8.10;99.90
55091;DHT22;40985;53.180;5.800;2023-10-19T04:48:10;8.20;99.90
55091;DHT22;40985;53.180;5.800;2023-10-19T04:50:36;8.10;99.90
55091;DHT22;40985;53.180;5.800;2023-10-19T04:53:02;8.20;99.90
55091;DHT22;40985;53.180;5.800;2023-10-19T04:55:29;8.10;99.90
55091;DHT22;40985;53.180;5.800;2023-10-19T04:57:55;8.20;99.90
55091;DHT22;40985;53.180;5.800;2023-10-19T05:00:22;8.20;99.90
55091;DHT22;40985;53.180;5.800;2023-10-19T05:02:50;8.30;99.90
55091;DHT22;40985;53.180;5.800;2023-10-19T05:05:18;8.30;99.90
55091;DHT22;40985;53.180;5.800;2023-10-19T05:07:44;8.40;99.90
55091;DHT22;40985;53.180;5.800;2023-10-19T05:10:10;8.30;99.90
55091;DHT22;40985;53.180;5.800;2023-10-19T05:12:36;8.20;99.90
55091;DHT22;40985;53.180;5.800;2023-10-19T05:15:02;8.40;99.90
55091;DHT22;40985;53.180;5.800;2023-10-19T05:17:28;8.30;99.90
55091;DHT22;40985;53.180;5.800;2023-10-19T05:19:54;8.20;99.90
55091;DHT22;40985;53.180;5.800;2023-10-19T05:22:19;8.40;99.90
55091;DHT22;40985;53.180;5.800;2023-10-19T05:24:47;8.20;99.90
55091;DHT22;40985;53.180;5.800;2023-10-19T05:27:13;8.50;99.90
55091;DHT22;40985;53.180;5.800;2023-10-19T05:29:39;8.20;99.90
55091;DHT22;40985;53.180;5.800;2023-10-19T05:32:05;8.50;99.90
55091;DHT22;40985;53.180;5.800;2023-10-19T05:34:31;8.40;99.90
55091;DHT22;40985;53.180;5.800;2023-10-19T05:37:01;8.30;99.90
55091;DHT22;40985;53.180;5.800;2023-10-19T05:39:31;8.50;99.90
55091;DHT22;40985;53.180;5.800;2023-10-19T05:41:59;8.40;99.90
55091;DHT22;40985;53.180;5.800;2023-10-19T05:44:30;8.30;99.90
55091;DHT22;40985;53.180;5.800;2023-10-19T05:46:56;8.50;99.90
55091;DHT22;40985;53.180;5.800;2023-10-19T05:49:23;8.40;99.90
55091;DHT22;40985;53.180;5.800;2023-10-19T05:51:50;8.50;99.90
55091;DHT22;40985;53.180;5.800;2023-10-19T05:54:15;8.50;99.90
55091;DHT22;40985;53.180;5.800;2023-10-19T05:56:42;8.60;99.90
55091;DHT22;40985;53.180;5.800;2023-10-19T05:59:08;8.40;99.90
55091;DHT22;40985;53.180;5.800;2023-10-19T06:01:36;8.40;99.90
55091;DHT22;40985;53.180;5.800;2023-10-19T06:04:03;8.40;99.90
55091;DHT22;40985;53.180;5.800;2023-10-19T06:06:28;8.50;99.90
55091;DHT22;40985;53.180;5.800;2023-10-19T06:08:54;8.50;99.90
55091;DHT22;40985;53.180;5.800;2023-10-19T06:11:23;8.60;99.90
55091;DHT22;40985;53.180;5.800;2023-10-19T06:13:49;8.50;99.90
55091;DHT22;40985;53.180;5.800;2023-10-19T06:16:14;8.60;99.90
55091;DHT22;40985;53.180;5.800;2023-10-19T06:18:40;8.70;99.90
55091;DHT22;40985;53.180;5.800;2023-10-19T06:21:06;8.40;99.90
55091;DHT22;40985;53.180;5.800;2023-10-19T06:23:31;8.70;99.90
55091;DHT22;40985;53.180;5.800;2023-10-19T06:25:57;8.50;99.90
55091;DHT22;40985;53.180;5.800;2023-10-19T06:28:23;8.60;99.90
55091;DHT22;40985;53.180;5.800;2023-10-19T06:30:49;8.60;99.90
55091;DHT22;40985;53.180;5.800;2023-10-19T06:33:16;8.50;99.90
55091;DHT22;40985;53.180;5.800;2023-10-19T06:35:42;8.50;99.90
55091;DHT22;40985;53.180;5.800;2023-10-19T06:38:07;8.50;99.90
55091;DHT22;40985;53.180;5.800;2023-10-19T06:40:35;8.60;99.90
55091;DHT22;40985;53.180;5.800;2023-10-19T06:43:04;8.60;99.90
55091;DHT22;40985;53.180;5.800;2023-10-19T06:45:31;8.70;99.90
55091;DHT22;40985;53.180;5.800;2023-10-19T06:47:57;8.70;99.90
55091;DHT22;40985;53.180;5.800;2023-10-19T06:50:26;8.50;99.90
55091;DHT22;40985;53.180;5.800;2023-10-19T06:52:52;8.50;99.90
55091;DHT22;40985;53.180;5.800;2023-10-19T06:55:20;8.80;99.90
55091;DHT22;40985;53.180;5.800;2023-10-19T06:57:50;8.50;99.90
55091;DHT22;40985;53.180;5.800;2023-10-19T07:00:18;8.60;99.90
55091;DHT22;40985;53.180;5.800;2023-10-19T07:02:55;8.60;99.90
55091;DHT22;40985;53.180;5.800;2023-10-19T07:05:22;8.80;99.90
55091;DHT22;40985;53.180;5.800;2023-10-19T07:07:50;8.70;99.90
55091;DHT22;40985;53.180;5.800;2023-10-19T07:10:18;8.90;99.90
55091;DHT22;40985;53.180;5.800;2023-10-19T07:12:47;8.70;99.90
55091;DHT22;40985;53.180;5.800;2023-10-19T07:15:13;8.80;99.90
55091;DHT22;40985;53.180;5.800;2023-10-19T07:17:43;8.80;99.90
55091;DHT22;40985;53.180;5.800;2023-10-19T07:20:10;8.70;99.90
55091;DHT22;40985;53.180;5.800;2023-10-19T07:22:56;8.70;99.90
55091;DHT22;40985;53.180;5.800;2023-10-19T07:25:23;8.90;99.90
55091;DHT22;40985;53.180;5.800;2023-10-19T07:27:51;8.70;99.90
55091;DHT22;40985;53.180;5.800;2023-10-19T07:30:18;8.70;99.90
55091;DHT22;40985;53.180;5.800;2023-10-19T07:32:48;8.80;99.90
55091;DHT22;40985;53.180;5.800;2023-10-19T07:35:18;8.90;99.90
55091;DHT22;40985;53.180;5.800;2023-10-19T07:37:44;8.60;99.90
55091;DHT22;40985;53.180;5.800;2023-10-19T07:40:10;8.70;99.90
55091;DHT22;40985;53.180;5.800;2023-10-19T07:42:40;8.90;99.90
55091;DHT22;40985;53.180;5.800;2023-10-19T07:45:06;8.90;99.90
55091;DHT22;40985;53.180;5.800;2023-10-19T07:47:37;8.90;99.90
55091;DHT22;40985;53.180;5.800;2023-10-19T07:50:09;8.70;99.90
55091;DHT22;40985;53.180;5.800;2023-10-19T07:52:52;8.70;99.90
55091;DHT22;40985;53.180;5.800;2023-10-19T07:55:22;9.10;99.90
55091;DHT22;40985;53.180;5.800;2023-10-19T07:57:51;8.80;99.90
55091;DHT22;40985;53.180;5.800;2023-10-19T08:00:18;8.90;99.90
55091;DHT22;40985;53.180;5.800;2023-10-19T08:02:47;9.10;99.90
55091;DHT22;40985;53.180;5.800;2023-10-19T08:05:17;8.90;99.90
55091;DHT22;40985;53.180;5.800;2023-10-19T08:07:46;9.00;99.90
55091;DHT22;40985;53.180;5.800;2023-10-19T08:10:16;9.10;99.90
55091;DHT22;40985;53.180;5.800;2023-10-19T08:12:43;9.00;99.90
55091;DHT22;40985;53.180;5.800;2023-10-19T08:15:11;8.90;99.90
55091;DHT22;40985;53.180;5.800;2023-10-19T08:17:40;9.20;99.90
55091;DHT22;40985;53.180;5.800;2023-10-19T08:20:11;9.20;99.90
55091;DHT22;40985;53.180;5.800;2023-10-19T08:22:50;9.20;99.90
55091;DHT22;40985;53.180;5.800;2023-10-19T08:25:16;9.00;99.90
55091;DHT22;40985;53.180;5.800;2023-10-19T08:27:45;9.20;99.90
55091;DHT22;40985;53.180;5.800;2023-10-19T08:30:14;9.00;99.90
55091;DHT22;40985;53.180;5.800;2023-10-19T08:32:41;9.10;99.90
55091;DHT22;40985;53.180;5.800;2023-10-19T08:35:10;9.00;99.90
55091;DHT22;40985;53.180;5.800;2023-10-19T08:37:39;9.20;99.90
55091;DHT22;40985;53.180;5.800;2023-10-19T08:40:07;9.30;99.90
55091;DHT22;40985;53.180;5.800;2023-10-19T08:42:39;9.30;99.90
55091;DHT22;40985;53.180;5.800;2023-10-19T08:45:07;9.30;99.90
55091;DHT22;40985;53.180;5.800;2023-10-19T08:47:36;9.20;99.90
55091;DHT22;40985;53.180;5.800;2023-10-19T08:50:03;9.30;99.90
55091;DHT22;40985;53.180;5.800;2023-10-19T08:52:30;9.50;99.90
55091;DHT22;40985;53.180;5.800;2023-10-19T08:54:57;9.40;99.90
55091;DHT22;40985;53.180;5.800;2023-10-19T08:57:23;9.60;99.90
55091;DHT22;40985;53.180;5.800;2023-10-19T08:59:49;9.30;99.90
55091;DHT22;40985;53.180;5.800;2023-10-19T09:02:15;9.50;99.90
55091;DHT22;40985;53.180;5.800;2023-10-19T09:04:47;9.50;99.90
55091;DHT22;40985;53.180;5.800;2023-10-19T09:07:13;9.60;99.90
55091;DHT22;40985;53.180;5.800;2023-10-19T09:09:41;9.40;99.90
55091;DHT22;40985;53.180;5.800;2023-10-19T09:12:07;9.50;99.90
55091;DHT22;40985;53.180;5.800;2023-10-19T09:14:35;9.50;99.90
55091;DHT22;40985;53.180;5.800;2023-10-19T09:17:09;9.50;99.90
55091;DHT22;40985;53.180;5.800;2023-10-19T09:19:40;9.70;99.90
55091;DHT22;40985;53.180;5.800;2023-10-19T09:22:07;9.50;99.90
55091;DHT22;40985;53.180;5.800;2023-10-19T09:24:42;9.60;99.90
55091;DHT22;40985;53.180;5.800;2023-10-19T09:27:08;9.60;99.90
55091;DHT22;40985;53.180;5.800;2023-10-19T09:29:34;9.70;99.90
55091;DHT22;40985;53.180;5.800;2023-10-19T09:31:59;9.70;99.90
55091;DHT22;40985;53.180;5.800;2023-10-19T09:34:30;9.60;99.90
55091;DHT22;40985;53.180;5.800;2023-10-19T09:37:02;9.70;99.90
55091;DHT22;40985;53.180;5.800;2023-10-19T09:39:32;9.80;99.90
55091;DHT22;40985;53.180;5.800;2023-10-19T09:42:09;9.90;99.90
55091;DHT22;40985;53.180;5.800;2023-10-19T09:44:55;9.70;99.90
55091;DHT22;40985;53.180;5.800;2023-10-19T09:47:29;9.60;99.90
55091;DHT22;40985;53.180;5.800;2023-10-19T09:49:58;9.70;99.90
55091;DHT22;40985;53.180;5.800;2023-10-19T09:52:24;9.70;99.90
55091;DHT22;40985;53.180;5.800;2023-10-19T09:57:36;10.00;99.90
55091;DHT22;40985;53.180;5.800;2023-10-19T10:00:04;10.10;99.90
55091;DHT22;40985;53.180;5.800;2023-10-19T10:02:53;9.80;99.90
55091;DHT22;40985;53.180;5.800;2023-10-19T10:05:53;10.10;99.90
55091;DHT22;40985;53.180;5.800;2023-10-19T10:10:49;10.20;99.90
55091;DHT22;40985;53.180;5.800;2023-10-19T10:15:53;10.20;99.90
55091;DHT22;40985;53.180;5.800;2023-10-19T10:18:20;10.20;99.90
55091;DHT22;40985;53.180;5.800;2023-10-19T10:20:46;10.00;99.90
55091;DHT22;40985;53.180;5.800;2023-10-19T10:23:16;10.40;99.90
55091;DHT22;40985;53.180;5.800;2023-10-19T10:25:45;10.40;99.90
55091;DHT22;40985;53.180;5.800;2023-10-19T10:28:14;10.40;99.90
55091;DHT22;40985;53.180;5.800;2023-10-19T10:31:12;10.30;99.90
55091;DHT22;40985;53.180;5.800;2023-10-19T10:33:46;10.20;99.90
55091;DHT22;40985;53.180;5.800;2023-10-19T10:36:16;10.50;99.90
55091;DHT22;40985;53.180;5.800;2023-10-19T10:38:49;10.60;99.90
55091;DHT22;40985;53.180;5.800;2023-10-19T10:41:23;10.60;99.90
55091;DHT22;40985;53.180;5.800;2023-10-19T10:43:55;10.40;99.90
55091;DHT22;40985;53.180;5.800;2023-10-19T10:46:26;10.50;99.90
55091;DHT22;40985;53.180;5.800;2023-10-19T10:48:53;10.50;99.90
55091;DHT22;40985;53.180;5.800;2023-10-19T10:53:50;10.80;99.90
55091;DHT22;40985;53.180;5.800;2023-10-19T10:56:16;10.80;99.90
55091;DHT22;40985;53.180;5.800;2023-10-19T10:58:43;10.70;99.90
55091;DHT22;40985;53.180;5.800;2023-10-19T11:01:09;10.60;99.90
55091;DHT22;40985;53.180;5.800;2023-10-19T11:03:39;11.00;99.90
55091;DHT22;40985;53.180;5.800;2023-10-19T11:06:06;10.80;99.90
55091;DHT22;40985;53.180;5.800;2023-10-19T11:08:34;11.10;99.90
55091;DHT22;40985;53.180;5.800;2023-10-19T11:11:06;11.30;99.90
55091;DHT22;40985;53.180;5.800;2023-10-19T11:13:32;11.20;99.90
55091;DHT22;40985;53.180;5.800;2023-10-19T11:16:03;11.50;99.90
55091;DHT22;40985;53.180;5.800;2023-10-19T11:18:41;11.40;99.90
55091;DHT22;40985;53.180;5.800;2023-10-19T11:21:12;11.30;99.90
55091;DHT22;40985;53.180;5.800;2023-10-19T11:23:43;11.40;99.90
55091;DHT22;40985;53.180;5.800;2023-10-19T11:26:10;11.30;99.90
55091;DHT22;40985;53.180;5.800;2023-10-19T11:28:37;11.40;99.90
55091;DHT22;40985;53.180;5.800;2023-10-19T11:31:12;11.30;99.90
55091;DHT22;40985;53.180;5.800;2023-10-19T11:33:40;11.60;99.90
55091;DHT22;40985;53.180;5.800;2023-10-19T11:36:07;11.70;99.90
55091;DHT22;40985;53.180;5.800;2023-10-19T11:38:32;11.60;99.90
55091;DHT22;40985;53.180;5.800;2023-10-19T11:40:58;11.60;99.90
55091;DHT22;40985;53.180;5.800;2023-10-19T11:43:24;11.50;99.90
55091;DHT22;40985;53.180;5.800;2023-10-19T11:45:49;11.60;99.90
55091;DHT22;40985;53.180;5.800;2023-10-19T11:48:15;11.40;99.90
55091;DHT22;40985;53.180;5.800;2023-10-19T11:50:41;11.50;99.90
55091;DHT22;40985;53.180;5.800;2023-10-19T11:53:07;11.30;99.90
55091;DHT22;40985;53.180;5.800;2023-10-19T11:55:35;11.50;99.90
55091;DHT22;40985;53.180;5.800;2023-10-19T11:58:01;11.40;99.90
55091;DHT22;40985;53.180;5.800;2023-10-19T12:00:26;11.30;99.90
55091;DHT22;40985;53.180;5.800;2023-10-19T12:02:59;11.40;99.90
55091;DHT22;40985;53.180;5.800;2023-10-19T12:05:25;11.50;99.90
55091;DHT22;40985;53.180;5.800;2023-10-19T12:07:51;11.20;99.90
55091;DHT22;40985;53.180;5.800;2023-10-19T12:10:17;11.20;99.90
55091;DHT22;40985;53.180;5.800;2023-10-19T12:12:46;11.20;99.90
55091;DHT22;40985;53.180;5.800;2023-10-19T12:15:12;11.40;99.90
55091;DHT22;40985;53.180;5.800;2023-10-19T12:17:38;11.30;99.90
55091;DHT22;40985;53.180;5.800;2023-10-19T12:20:04;11.20;99.90
55091;DHT22;40985;53.180;5.800;2023-10-19T12:22:32;11.20;99.90
55091;DHT22;40985;53.180;5.800;2023-10-19T12:25:04;10.90;99.90
55091;DHT22;40985;53.180;5.800;2023-10-19T12:27:30;11.10;99.90
55091;DHT22;40985;53.180;5.800;2023-10-19T12:29:56;10.90;99.90
55091;DHT22;40985;53.180;5.800;2023-10-19T12:32:24;11.10;99.90
55091;DHT22;40985;53.180;5.800;2023-10-19T12:34:51;10.90;99.90
55091;DHT22;40985;53.180;5.800;2023-10-19T12:37:23;11.00;99.90
55091;DHT22;40985;53.180;5.800;2023-10-19T12:39:50;10.90;99.90
55091;DHT22;40985;53.180;5.800;2023-10-19T12:42:17;10.90;99.90
55091;DHT22;40985;53.180;5.800;2023-10-19T12:44:42;10.70;99.90
55091;DHT22;40985;53.180;5.800;2023-10-19T12:47:09;10.90;99.90
55091;DHT22;40985;53.180;5.800;2023-10-19T12:49:38;10.70;99.90
55091;DHT22;40985;53.180;5.800;2023-10-19T12:52:04;10.80;99.90
55091;DHT22;40985;53.180;5.800;2023-10-19T12:54:33;10.70;99.90
55091;DHT22;40985;53.180;5.800;2023-10-19T12:57:00;10.70;99.90
55091;DHT22;40985;53.180;5.800;2023-10-19T12:59:26;10.60;99.90
55091;DHT22;40985;53.180;5.800;2023-10-19T13:01:52;10.80;99.90
55091;DHT22;40985;53.180;5.800;2023-10-19T13:04:23;10.70;99.90
55091;DHT22;40985;53.180;5.800;2023-10-19T13:06:52;10.60;99.90
55091;DHT22;40985;53.180;5.800;2023-10-19T13:09:25;10.70;99.90
55091;DHT22;40985;53.180;5.800;2023-10-19T13:12:00;10.40;99.90
55091;DHT22;40985;53.180;5.800;2023-10-19T13:14:26;10.60;99.90
55091;DHT22;40985;53.180;5.800;2023-10-19T13:16:53;10.40;99.90
55091;DHT22;40985;53.180;5.800;2023-10-19T13:19:23;10.30;99.90
55091;DHT22;40985;53.180;5.800;2023-10-19T13:21:52;10.40;99.90
55091;DHT22;40985;53.180;5.800;2023-10-19T13:24:18;10.60;99.90
55091;DHT22;40985;53.180;5.800;2023-10-19T13:26:49;10.30;99.90
55091;DHT22;40985;53.180;5.800;2023-10-19T13:29:15;10.50;99.90
55091;DHT22;40985;53.180;5.800;2023-10-19T13:31:41;10.40;99.90
55091;DHT22;40985;53.180;5.800;2023-10-19T13:34:09;10.40;99.90
55091;DHT22;40985;53.180;5.800;2023-10-19T13:36:36;10.40;99.90
55091;DHT22;40985;53.180;5.800;2023-10-19T13:39:02;10.40;99.90
55091;DHT22;40985;53.180;5.800;2023-10-19T13:41:29;10.30;99.90
55091;DHT22;40985;53.180;5.800;2023-10-19T13:43:55;10.10;99.90
55091;DHT22;40985;53.180;5.800;2023-10-19T13:46:21;10.10;99.90
55091;DHT22;40985;53.180;5.800;2023-10-19T13:48:49;10.10;99.90
55091;DHT22;40985;53.180;5.800;2023-10-19T13:51:18;10.20;99.90
55091;DHT22;40985;53.180;5.800;2023-10-19T13:53:47;10.20;99.90
55091;DHT22;40985;53.180;5.800;2023-10-19T13:56:16;10.00;99.90
55091;DHT22;40985;53.180;5.800;2023-10-19T13:58:41;10.10;99.90
55091;DHT22;40985;53.180;5.800;2023-10-19T14:01:08;10.00;99.90
55091;DHT22;40985;53.180;5.800;2023-10-19T14:03:34;10.00;99.90
55091;DHT22;40985;53.180;5.800;2023-10-19T14:06:00;10.00;99.90
55091;DHT22;40985;53.180;5.800;2023-10-19T14:08:26;10.10;99.90
55091;DHT22;40985;53.180;5.800;2023-10-19T14:10:52;9.80;99.90
55091;DHT22;40985;53.180;5.800;2023-10-19T14:13:17;9.90;99.90
55091;DHT22;40985;53.180;5.800;2023-10-19T14:15:43;10.10;99.90
55091;DHT22;40985;53.180;5.800;2023-10-19T14:18:09;9.90;99.90
55091;DHT22;40985;53.180;5.800;2023-10-19T14:20:36;10.10;99.90
55091;DHT22;40985;53.180;5.800;2023-10-19T14:23:04;9.90;99.90
55091;DHT22;40985;53.180;5.800;2023-10-19T14:25:30;10.00;99.90
55091;DHT22;40985;53.180;5.800;2023-10-19T14:27:56;9.80;99.90
55091;DHT22;40985;53.180;5.800;2023-10-19T14:30:26;10.00;99.90
55091;DHT22;40985;53.180;5.800;2023-10-19T14:32:54;9.90;99.90
55091;DHT22;40985;53.180;5.800;2023-10-19T14:35:21;9.70;99.90
55091;DHT22;40985;53.180;5.800;2023-10-19T14:37:51;9.70;99.90
55091;DHT22;40985;53.180;5.800;2023-10-19T14:40:22;9.60;99.90
55091;DHT22;40985;53.180;5.800;2023-10-19T14:42:52;9.70;99.90
55091;DHT22;40985;53.180;5.800;2023-10-19T14:45:23;9.60;99.90
55091;DHT22;40985;53.180;5.800;2023-10-19T14:47:55;9.70;99.90
55091;DHT22;40985;53.180;5.800;2023-10-19T14:50:21;9.80;99.90
55091;DHT22;40985;53.180;5.800;2023-10-19T14:52:51;9.80;99.90
55091;DHT22;40985;53.180;5.800;2023-10-19T14:55:23;9.70;99.90
55091;DHT22;40985;53.180;5.800;2023-10-19T14:57:51;9.60;99.90
55091;DHT22;40985;53.180;5.800;2023-10-19T15:00:23;9.50;99.90
55091;DHT22;40985;53.180;5.800;2023-10-19T15:03:09;9.60;99.90
55091;DHT22;40985;53.180;5.800;2023-10-19T15:05:35;9.60;99.90
55091;DHT22;40985;53.180;5.800;2023-10-19T15:08:02;9.50;99.90
55091;DHT22;40985;53.180;5.800;2023-10-19T15:10:30;9.60;99.90
55091;DHT22;40985;53.180;5.800;2023-10-19T15:12:57;9.50;99.90
55091;DHT22;40985;53.180;5.800;2023-10-19T15:15:25;9.40;99.90
55091;DHT22;40985;53.180;5.800;2023-10-19T15:17:50;9.40;99.90
55091;DHT22;40985;53.180;5.800;2023-10-19T15:20:20;9.60;99.90
55091;DHT22;40985;53.180;5.800;2023-10-19T15:22:47;9.40;99.90
55091;DHT22;40985;53.180;5.800;2023-10-19T15:25:14;9.50;99.90
55091;DHT22;40985;53.180;5.800;2023-10-19T15:27:41;9.30;99.90
55091;DHT22;40985;53.180;5.800;2023-10-19T15:30:08;9.40;99.90
55091;DHT22;40985;53.180;5.800;2023-10-19T15:32:40;9.60;99.90
55091;DHT22;40985;53.180;5.800;2023-10-19T15:35:10;9.50;99.90
55091;DHT22;40985;53.180;5.800;2023-10-19T15:37:37;9.40;99.90
55091;DHT22;40985;53.180;5.800;2023-10-19T15:40:04;9.30;99.90
55091;DHT22;40985;53.180;5.800;2023-10-19T15:42:30;9.20;99.90
55091;DHT22;40985;53.180;5.800;2023-10-19T15:44:56;9.30;99.90
55091;DHT22;40985;53.180;5.800;2023-10-19T15:47:22;9.40;99.90
55091;DHT22;40985;53.180;5.800;2023-10-19T15:49:54;9.40;99.90
55091;DHT22;40985;53.180;5.800;2023-10-19T15:52:26;9.20;99.90
55091;DHT22;40985;53.180;5.800;2023-10-19T15:54:54;9.40;99.90
55091;DHT22;40985;53.180;5.800;2023-10-19T15:57:20;9.20;99.90
55091;DHT22;40985;53.180;5.800;2023-10-19T15:59:46;9.40;99.90
55091;DHT22;40985;53.180;5.800;2023-10-19T16:02:14;9.40;99.90
55091;DHT22;40985;53.180;5.800;2023-10-19T16:04:42;9.20;99.90
55091;DHT22;40985;53.180;5.800;2023-10-19T16:07:09;9.20;99.90